Time;durP1;ratioP1;P1;durP2;ratioP2;P2;SDS_P1;SDS_P2;PMS_P1;PMS_P2;Temp;Humidity;BMP_temperature;BMP_pressure;BME280_temperature;BME280_humidity;BME280_pressure;Samples;Min_cycle;Max_cycle;Signal;HPM_P1;HPM_P2
2022/04/04 00:01:40;;;;;;;7.38;6.68;;;;;;;;;;5051672;28;20052;-72
2022/04/04 00:04:07;;;;;;;8.67;7.47;;;;;;;;;;5052027;28;20076;-73
2022/04/04 00:06:33;;;;;;;8.07;7.28;;;;;;;;;;5052207;28;20136;-72
2022/04/04 00:09:00;;;;;;;8.23;6.95;;;;;;;;;;5051959;28;20492;-72
2022/04/04 00:11:26;;;;;;;8.65;7.22;;;;;;;;;;5038116;28;20076;-72
2022/04/04 00:13:53;;;;;;;7.72;7.07;;;;;;;;;;5052198;28;20076;-72
2022/04/04 00:16:19;;;;;;;9.27;7.40;;;;;;;;;;5050632;28;20048;-72
2022/04/04 00:18:46;;;;;;;8.95;7.75;;;;;;;;;;5051976;28;20118;-72
2022/04/04 00:21:12;;;;;;;9.25;7.93;;;;;;;;;;5051832;28;20080;-72
2022/04/04 00:23:39;;;;;;;8.85;8.05;;;;;;;;;;5050737;28;20072;-73
2022/04/04 00:26:05;;;;;;;8.73;7.93;;;;;;;;;;5052013;28;20083;-72
2022/04/04 00:28:32;;;;;;;9.15;8.35;;;;;;;;;;5050369;28;20103;-73
2022/04/04 00:30:58;;;;;;;9.68;8.13;;;;;;;;;;5051491;28;20115;-72
2022/04/04 00:33:25;;;;;;;9.60;8.00;;;;;;;;;;5051574;28;20048;-72
2022/04/04 00:35:51;;;;;;;10.02;7.95;;;;;;;;;;5051801;28;20118;-73
2022/04/04 00:38:18;;;;;;;8.88;7.95;;;;;;;;;;5051424;28;20513;-73
2022/04/04 00:40:44;;;;;;;8.68;7.85;;;;;;;;;;5051744;28;20085;-73
2022/04/04 00:43:11;;;;;;;9.20;8.25;;;;;;;;;;5051774;28;20453;-73
2022/04/04 00:45:37;;;;;;;8.23;7.43;;;;;;;;;;5051418;28;20059;-73
2022/04/04 00:48:04;;;;;;;8.98;7.53;;;;;;;;;;5051617;28;20084;-73
2022/04/04 00:50:30;;;;;;;8.75;7.90;;;;;;;;;;5051289;28;20099;-72
2022/04/04 00:52:57;;;;;;;8.00;7.20;;;;;;;;;;5050112;28;20037;-72
2022/04/04 00:55:23;;;;;;;10.05;7.43;;;;;;;;;;5051403;28;20076;-72
2022/04/04 00:57:50;;;;;;;8.70;7.88;;;;;;;;;;5051253;28;20520;-72
2022/04/04 01:00:17;;;;;;;10.15;7.55;;;;;;;;;;5051293;28;20053;-73
2022/04/04 01:02:43;;;;;;;8.80;7.50;;;;;;;;;;5051568;28;20102;-73
2022/04/04 01:05:10;;;;;;;8.63;7.28;;;;;;;;;;5051163;28;20505;-73
2022/04/04 01:07:37;;;;;;;7.40;6.57;;;;;;;;;;5051270;28;20460;-73
2022/04/04 01:10:03;;;;;;;8.35;7.25;;;;;;;;;;5051356;28;20088;-73
2022/04/04 01:12:30;;;;;;;7.28;6.53;;;;;;;;;;5053420;28;20076;-73
2022/04/04 01:14:56;;;;;;;7.80;7.00;;;;;;;;;;5055357;28;20099;-73
2022/04/04 01:17:25;;;;;;;6.90;6.30;;;;;;;;;;5055087;28;20076;-73
2022/04/04 01:19:51;;;;;;;7.07;6.40;;;;;;;;;;5053720;28;20497;-73
2022/04/04 01:22:18;;;;;;;7.68;6.85;;;;;;;;;;5055150;28;20087;-73
2022/04/04 01:24:44;;;;;;;7.38;6.63;;;;;;;;;;5055298;28;20108;-73
2022/04/04 01:27:14;;;;;;;8.88;7.82;;;;;;;;;;5054729;28;20053;-73
2022/04/04 01:29:40;;;;;;;8.23;7.38;;;;;;;;;;5055070;28;20128;-73
2022/04/04 01:32:07;;;;;;;9.20;7.20;;;;;;;;;;5053541;28;20057;-73
2022/04/04 01:34:34;;;;;;;8.02;7.22;;;;;;;;;;5055017;28;20073;-73
2022/04/04 01:37:00;;;;;;;8.57;7.75;;;;;;;;;;5054809;28;20045;-73
2022/04/04 01:39:27;;;;;;;7.93;7.20;;;;;;;;;;5055007;28;20092;-73
2022/04/04 01:41:53;;;;;;;7.75;6.82;;;;;;;;;;5054600;28;20531;-73
2022/04/04 01:44:20;;;;;;;7.72;6.93;;;;;;;;;;5054795;28;20103;-73
2022/04/04 01:46:46;;;;;;;7.25;6.55;;;;;;;;;;5054846;28;20052;-73
2022/04/04 01:49:13;;;;;;;8.10;7.30;;;;;;;;;;5054507;28;20094;-74
2022/04/04 01:51:39;;;;;;;7.35;6.22;;;;;;;;;;5054378;28;20512;-73
2022/04/04 01:54:06;;;;;;;7.07;6.15;;;;;;;;;;5053498;28;20084;-73
2022/04/04 01:56:33;;;;;;;7.05;6.28;;;;;;;;;;5054300;28;20048;-72
2022/04/04 01:59:00;;;;;;;8.55;6.93;;;;;;;;;;5054531;28;20083;-72
2022/04/04 02:01:26;;;;;;;7.78;6.65;;;;;;;;;;5054231;28;20160;-73
2022/04/04 02:03:54;;;;;;;7.23;6.53;;;;;;;;;;5054336;28;20085;-73
2022/04/04 02:06:20;;;;;;;7.28;6.38;;;;;;;;;;5054249;28;20122;-73
2022/04/04 02:08:47;;;;;;;9.23;6.70;;;;;;;;;;5054445;28;20052;-73
2022/04/04 02:11:14;;;;;;;7.03;6.32;;;;;;;;;;5054010;28;20538;-73
2022/04/04 02:13:41;;;;;;;8.60;6.03;;;;;;;;;;5054293;28;20457;-73
2022/04/04 02:16:07;;;;;;;6.35;5.85;;;;;;;;;;5054382;28;20076;-73
2022/04/04 02:18:34;;;;;;;6.68;6.05;;;;;;;;;;5054036;28;20106;-72
2022/04/04 02:21:02;;;;;;;6.60;6.00;;;;;;;;;;5052968;28;20091;-72
2022/04/04 02:23:28;;;;;;;6.53;5.93;;;;;;;;;;5053429;28;20057;-72
2022/04/04 02:25:56;;;;;;;7.10;6.50;;;;;;;;;;5054456;28;20080;-72
2022/04/04 02:28:22;;;;;;;7.53;6.40;;;;;;;;;;5053745;28;20128;-72
2022/04/04 02:30:51;;;;;;;6.28;5.68;;;;;;;;;;5053985;28;20048;-72
2022/04/04 02:33:19;;;;;;;7.57;6.43;;;;;;;;;;5054023;28;20043;-72
2022/04/04 02:35:46;;;;;;;6.90;6.13;;;;;;;;;;5053712;28;20087;-71
2022/04/04 02:38:13;;;;;;;8.43;6.00;;;;;;;;;;5053146;28;20080;-71
2022/04/04 02:40:40;;;;;;;6.78;6.18;;;;;;;;;;5050904;28;20084;-72
2022/04/04 02:43:07;;;;;;;5.87;5.37;;;;;;;;;;5049228;28;20087;-72
2022/04/04 02:45:33;;;;;;;6.50;5.90;;;;;;;;;;5053315;28;20131;-72
2022/04/04 02:48:00;;;;;;;6.38;5.88;;;;;;;;;;5053467;28;20060;-72
2022/04/04 02:50:27;;;;;;;8.85;5.60;;;;;;;;;;5053279;28;20053;-71
2022/04/04 02:52:53;;;;;;;5.75;5.05;;;;;;;;;;5053231;28;20065;-71
2022/04/04 02:58:05;;;;;;;8.00;6.20;;;;;;;;;;5053416;28;20081;-71
2022/04/04 03:00:32;;;;;;;7.30;5.63;;;;;;;;;;5053199;28;20049;-71
2022/04/04 03:02:58;;;;;;;6.65;5.68;;;;;;;;;;5053105;28;20088;-71
2022/04/04 03:05:25;;;;;;;7.45;5.43;;;;;;;;;;5053056;28;20525;-72
2022/04/04 03:07:51;;;;;;;7.53;5.38;;;;;;;;;;5052024;28;20107;-72
2022/04/04 03:10:18;;;;;;;6.28;5.65;;;;;;;;;;5053130;28;20080;-72
2022/04/04 03:12:48;;;;;;;7.35;5.88;;;;;;;;;;5052972;28;20524;-72
2022/04/04 03:15:16;;;;;;;6.03;5.35;;;;;;;;;;5053050;28;20071;-72
2022/04/04 03:17:43;;;;;;;5.95;5.35;;;;;;;;;;5051905;28;20080;-72
2022/04/04 03:20:11;;;;;;;6.90;5.93;;;;;;;;;;5053085;28;20095;-72
2022/04/04 03:22:41;;;;;;;5.63;5.10;;;;;;;;;;5052950;28;20088;-72
2022/04/04 03:25:08;;;;;;;6.32;5.32;;;;;;;;;;5052625;28;20508;-72
2022/04/04 03:27:36;;;;;;;6.57;5.13;;;;;;;;;;5051355;28;20052;-73
2022/04/04 03:30:03;;;;;;;5.65;5.15;;;;;;;;;;5052827;28;20045;-72
2022/04/04 03:32:30;;;;;;;5.88;5.28;;;;;;;;;;5051220;28;20509;-72
2022/04/04 03:34:56;;;;;;;7.25;5.45;;;;;;;;;;5052106;28;20471;-72
2022/04/04 03:37:24;;;;;;;7.40;5.13;;;;;;;;;;5052538;28;20099;-72
2022/04/04 03:39:50;;;;;;;;;;;;;;;;;;5053010;28;20086;-72
2022/04/04 03:42:17;;;;;;;6.40;4.90;;;;;;;;;;5052873;28;20396;-73
2022/04/04 03:44:44;;;;;;;6.32;5.20;;;;;;;;;;5052490;28;20088;-71
2022/04/04 03:47:10;;;;;;;5.55;5.03;;;;;;;;;;5052563;28;20092;-72
2022/04/04 03:49:37;;;;;;;5.82;5.13;;;;;;;;;;5052393;28;20084;-72
2022/04/04 03:52:04;;;;;;;5.60;5.05;;;;;;;;;;5052191;28;20106;-72
2022/04/04 03:54:31;;;;;;;5.28;4.75;;;;;;;;;;5052137;28;20088;-72
2022/04/04 03:56:58;;;;;;;6.95;5.47;;;;;;;;;;5052162;28;20053;-73
2022/04/04 03:59:24;;;;;;;5.20;4.80;;;;;;;;;;5052346;28;20492;-73
2022/04/04 04:01:51;;;;;;;5.95;5.45;;;;;;;;;;5052301;28;20045;-73
2022/04/04 04:04:17;;;;;;;5.68;5.18;;;;;;;;;;5052195;28;20055;-73
2022/04/04 04:06:47;;;;;;;6.57;5.38;;;;;;;;;;5052190;28;20480;-73
2022/04/04 04:09:13;;;;;;;6.13;5.53;;;;;;;;;;5051919;28;20092;-73
2022/04/04 04:11:40;;;;;;;6.38;5.75;;;;;;;;;;5052039;28;20045;-73
2022/04/04 04:14:06;;;;;;;5.85;5.25;;;;;;;;;;5051789;28;20092;-73
2022/04/04 04:16:33;;;;;;;8.35;5.55;;;;;;;;;;5051762;28;20437;-73
2022/04/04 04:18:59;;;;;;;5.70;5.20;;;;;;;;;;5050672;28;20098;-73
2022/04/04 04:21:26;;;;;;;6.10;5.32;;;;;;;;;;5050606;28;20053;-73
2022/04/04 04:23:52;;;;;;;7.00;5.38;;;;;;;;;;5051715;28;20080;-73
2022/04/04 04:26:19;;;;;;;7.10;5.47;;;;;;;;;;5051728;28;20065;-73
2022/04/04 04:28:46;;;;;;;8.57;5.50;;;;;;;;;;5051574;28;20080;-73
2022/04/04 04:31:14;;;;;;;7.50;5.00;;;;;;;;;;5051566;28;20132;-73
2022/04/04 04:33:40;;;;;;;6.85;4.88;;;;;;;;;;5051664;28;20286;-73
2022/04/04 04:36:07;;;;;;;5.78;4.50;;;;;;;;;;5051662;28;20049;-73
2022/04/04 04:38:34;;;;;;;8.73;4.90;;;;;;;;;;5050330;28;20135;-73
2022/04/04 04:41:01;;;;;;;6.22;5.30;;;;;;;;;;5051483;28;20049;-72
2022/04/04 04:43:28;;;;;;;7.00;5.28;;;;;;;;;;5051421;28;20505;-73
2022/04/04 04:45:55;;;;;;;5.47;4.97;;;;;;;;;;5051481;28;20045;-73
2022/04/04 04:48:21;;;;;;;5.57;4.82;;;;;;;;;;5056898;28;20091;-72
2022/04/04 04:50:48;;;;;;;8.32;5.30;;;;;;;;;;5058032;28;20045;-72
2022/04/04 04:53:14;;;;;;;5.55;5.00;;;;;;;;;;5058230;28;20472;-73
2022/04/04 04:55:41;;;;;;;5.53;5.03;;;;;;;;;;5058298;28;20048;-73
2022/04/04 04:58:08;;;;;;;6.80;4.47;;;;;;;;;;5058087;28;20119;-74
2022/04/04 05:00:34;;;;;;;5.32;4.68;;;;;;;;;;5058264;28;20464;-73
2022/04/04 05:05:47;;;;;;;5.72;4.75;;;;;;;;;;5057899;28;20053;-72
2022/04/04 05:08:14;;;;;;;8.23;4.60;;;;;;;;;;5057668;28;20084;-72
2022/04/04 05:10:40;;;;;;;6.88;4.82;;;;;;;;;;5058011;28;20045;-73
2022/04/04 05:13:07;;;;;;;6.13;4.90;;;;;;;;;;5057758;28;20053;-72
2022/04/04 05:15:33;;;;;;;6.03;4.43;;;;;;;;;;5057757;28;20517;-72
2022/04/04 05:17:59;;;;;;;4.07;3.63;;;;;;;;;;5056569;28;20080;-72
2022/04/04 05:20:26;;;;;;;6.95;4.68;;;;;;;;;;5057701;28;20127;-72
2022/04/04 05:22:53;;;;;;;4.35;3.95;;;;;;;;;;5056835;28;20057;-72
2022/04/04 05:25:19;;;;;;;3.85;3.55;;;;;;;;;;5058028;28;21487;-73
2022/04/04 05:27:45;;;;;;;3.58;3.28;;;;;;;;;;5057733;28;20082;-72
2022/04/04 05:30:12;;;;;;;5.45;3.75;;;;;;;;;;5057574;28;20052;-72
2022/04/04 05:32:38;;;;;;;4.55;3.20;;;;;;;;;;5057685;28;20087;-72
2022/04/04 05:35:08;;;;;;;4.55;2.85;;;;;;;;;;5057636;28;20080;-72
2022/04/04 05:37:35;;;;;;;3.15;2.67;;;;;;;;;;5057738;28;20040;-72
2022/04/04 05:40:03;;;;;;;2.92;2.70;;;;;;;;;;5057957;28;20066;-72
2022/04/04 05:42:30;;;;;;;2.78;2.45;;;;;;;;;;5056351;28;20092;-72
2022/04/04 05:44:57;;;;;;;2.60;2.40;;;;;;;;;;5056370;28;20097;-72
2022/04/04 05:47:23;;;;;;;3.50;2.47;;;;;;;;;;5057493;28;20080;-72
2022/04/04 05:49:53;;;;;;;3.45;2.63;;;;;;;;;;5056493;28;20081;-73
2022/04/04 05:52:21;;;;;;;2.33;2.15;;;;;;;;;;5057385;28;20099;-73
2022/04/04 05:55:01;;;;;;;3.20;2.60;;;;;;;;;;5057434;28;20067;-74
2022/04/04 05:57:29;;;;;;;2.97;2.75;;;;;;;;;;5057419;28;20910;-74
2022/04/04 05:59:56;;;;;;;2.15;1.95;;;;;;;;;;5053656;28;20396;-73
2022/04/04 06:02:23;;;;;;;2.88;2.35;;;;;;;;;;5053285;28;20092;-73
2022/04/04 06:04:50;;;;;;;2.33;2.08;;;;;;;;;;5054426;28;20056;-73
2022/04/04 06:07:17;;;;;;;2.90;2.70;;;;;;;;;;5054112;28;20060;-73
2022/04/04 06:09:43;;;;;;;3.67;2.85;;;;;;;;;;5054017;28;20118;-73
2022/04/04 06:12:10;;;;;;;2.83;2.63;;;;;;;;;;5054042;28;20563;-72
2022/04/04 06:14:36;;;;;;;3.00;2.35;;;;;;;;;;5054345;28;20088;-73
2022/04/04 06:17:05;;;;;;;2.80;2.60;;;;;;;;;;5053925;28;20071;-73
2022/04/04 06:19:32;;;;;;;3.03;2.72;;;;;;;;;;5053094;28;20083;-72
2022/04/04 06:21:58;;;;;;;3.03;2.40;;;;;;;;;;5053885;28;20510;-71
2022/04/04 06:24:25;;;;;;;3.22;2.67;;;;;;;;;;5054191;28;20094;-71
2022/04/04 06:26:51;;;;;;;3.20;2.90;;;;;;;;;;5047272;28;20064;-71
2022/04/04 06:29:18;;;;;;;3.42;2.40;;;;;;;;;;5033665;28;20532;-70
2022/04/04 06:31:46;;;;;;;2.20;2.00;;;;;;;;;;5040032;28;20048;-74
2022/04/04 06:34:13;;;;;;;2.47;2.28;;;;;;;;;;5032035;28;20572;-74
2022/04/04 06:36:40;;;;;;;2.83;2.50;;;;;;;;;;5032922;28;20084;-74
2022/04/04 06:39:06;;;;;;;2.97;2.58;;;;;;;;;;5033062;28;20460;-74
2022/04/04 06:41:33;;;;;;;3.10;2.85;;;;;;;;;;5035863;28;20160;-73
2022/04/04 06:43:59;;;;;;;2.42;2.33;;;;;;;;;;5053394;28;20053;-76
2022/04/04 06:46:26;;;;;;;4.80;2.88;;;;;;;;;;5034475;28;20458;-74
2022/04/04 06:48:52;;;;;;;6.57;4.47;;;;;;;;;;5033303;28;20053;-74
2022/04/04 06:51:19;;;;;;;9.27;7.35;;;;;;;;;;5038036;28;20570;-75
2022/04/04 06:53:46;;;;;;;6.60;3.95;;;;;;;;;;5029271;28;20140;-72
2022/04/04 06:56:12;;;;;;;3.65;3.35;;;;;;;;;;5032696;28;20069;-73
2022/04/04 06:58:39;;;;;;;3.85;2.97;;;;;;;;;;5031309;28;20041;-71
2022/04/04 07:01:06;;;;;;;2.80;2.60;;;;;;;;;;5043381;28;20092;-73
2022/04/04 07:03:32;;;;;;;2.50;2.30;;;;;;;;;;5051872;28;20053;-73
2022/04/04 07:05:59;;;;;;;3.85;2.40;;;;;;;;;;5053413;28;20513;-74
2022/04/04 07:08:25;;;;;;;2.20;2.10;;;;;;;;;;5045849;28;20060;-73
2022/04/04 07:10:52;;;;;;;2.83;2.63;;;;;;;;;;5051197;28;20080;-72
2022/04/04 07:13:18;;;;;;;2.45;2.25;;;;;;;;;;5052381;28;20076;-71
2022/04/04 07:15:45;;;;;;;2.13;1.90;;;;;;;;;;5052885;28;20080;-72
2022/04/04 07:18:12;;;;;;;2.20;2.10;;;;;;;;;;5048098;28;20073;-72
2022/04/04 07:20:39;;;;;;;2.47;2.30;;;;;;;;;;5041797;28;20501;-71
2022/04/04 07:23:05;;;;;;;1.85;1.75;;;;;;;;;;5049234;28;20128;-73
2022/04/04 07:25:32;;;;;;;1.65;1.55;;;;;;;;;;5032101;28;20083;-72
2022/04/04 07:27:58;;;;;;;1.90;1.80;;;;;;;;;;5042458;28;20076;-73
2022/04/04 07:30:26;;;;;;;1.88;1.77;;;;;;;;;;5052530;28;20049;-73
2022/04/04 07:32:52;;;;;;;;;;;;;;;;;;5051637;28;20100;-73
2022/04/04 07:35:20;;;;;;;1.83;1.73;;;;;;;;;;5044578;28;19959;-73
2022/04/04 07:37:47;;;;;;;1.70;1.60;;;;;;;;;;5032762;28;20455;-73
2022/04/04 07:40:15;;;;;;;2.45;1.77;;;;;;;;;;5039272;28;20081;-76
2022/04/04 07:42:42;;;;;;;1.60;1.50;;;;;;;;;;5027756;28;20137;-74
2022/04/04 07:45:10;;;;;;;1.80;1.70;;;;;;;;;;5052279;28;20053;-75
2022/04/04 07:47:37;;;;;;;1.25;1.23;;;;;;;;;;5051067;28;20412;-75
2022/04/04 07:50:04;;;;;;;1.40;1.30;;;;;;;;;;5051107;28;20076;-75
2022/04/04 07:52:30;;;;;;;1.30;1.20;;;;;;;;;;5052172;28;20083;-76
2022/04/04 07:54:57;;;;;;;1.90;1.80;;;;;;;;;;5052374;28;20041;-75
2022/04/04 07:57:23;;;;;;;1.90;1.80;;;;;;;;;;5052119;28;20550;-76
2022/04/04 07:59:51;;;;;;;1.73;1.58;;;;;;;;;;5036556;28;20038;-74
2022/04/04 08:02:18;;;;;;;1.50;1.40;;;;;;;;;;5027603;28;20041;-75
2022/04/04 08:04:45;;;;;;;2.15;2.05;;;;;;;;;;5030747;28;20065;-75
2022/04/04 08:07:12;;;;;;;2.47;2.28;;;;;;;;;;5030981;28;20080;-75
2022/04/04 08:09:39;;;;;;;2.67;2.47;;;;;;;;;;5051285;28;20053;-75
2022/04/04 08:12:06;;;;;;;1.23;1.23;;;;;;;;;;5050665;28;20091;-76
2022/04/04 08:14:36;;;;;;;1.38;0.90;;;;;;;;;;5050587;28;20500;-75
2022/04/04 08:17:03;;;;;;;0.85;0.85;;;;;;;;;;5048827;28;20040;-74
2022/04/04 08:19:30;;;;;;;2.38;1.70;;;;;;;;;;5047220;28;20382;-75
2022/04/04 08:21:56;;;;;;;2.20;2.10;;;;;;;;;;5050284;28;20459;-74
2022/04/04 08:24:23;;;;;;;1.05;0.63;;;;;;;;;;5036862;28;20323;-74
2022/04/04 08:26:49;;;;;;;1.10;0.70;;;;;;;;;;5030057;28;20588;-74
2022/04/04 08:29:16;;;;;;;1.73;1.00;;;;;;;;;;5030072;28;20494;-74
2022/04/04 08:31:42;;;;;;;1.10;1.00;;;;;;;;;;5030328;28;20081;-74
2022/04/04 08:34:10;;;;;;;0.95;0.95;;;;;;;;;;5030251;28;20060;-73
2022/04/04 08:36:38;;;;;;;1.17;0.90;;;;;;;;;;5030282;28;20107;-73
2022/04/04 08:39:07;;;;;;;1.20;1.20;;;;;;;;;;5033229;28;20053;-74
2022/04/04 08:41:34;;;;;;;0.88;0.88;;;;;;;;;;5041323;28;20049;-74
2022/04/04 08:44:01;;;;;;;0.70;0.60;;;;;;;;;;5050605;28;20049;-74
2022/04/04 08:46:28;;;;;;;1.83;0.60;;;;;;;;;;5033120;28;20053;-74
2022/04/04 08:48:58;;;;;;;1.02;0.65;;;;;;;;;;5031303;28;20049;-74
2022/04/04 08:51:25;;;;;;;0.50;0.40;;;;;;;;;;5050297;28;20076;-74
2022/04/04 08:53:52;;;;;;;0.57;0.57;;;;;;;;;;5045989;28;20440;-74
2022/04/04 08:56:20;;;;;;;0.80;0.80;;;;;;;;;;5040199;28;20126;-75
2022/04/04 08:58:47;;;;;;;1.45;0.60;;;;;;;;;;5041269;28;20098;-74
2022/04/04 09:01:13;;;;;;;1.98;1.10;;;;;;;;;;5047133;28;20073;-73
2022/04/04 09:03:40;;;;;;;2.50;0.80;;;;;;;;;;5049242;28;20053;-74
2022/04/04 09:06:06;;;;;;;0.80;0.60;;;;;;;;;;5050403;28;20106;-72
2022/04/04 09:08:44;;;;;;;0.98;0.80;;;;;;;;;;5050441;28;20150;-73
2022/04/04 09:11:11;;;;;;;1.35;0.90;;;;;;;;;;5034473;28;20041;-72
2022/04/04 09:13:37;;;;;;;1.50;1.00;;;;;;;;;;5030464;28;20457;-71
2022/04/04 09:16:05;;;;;;;1.90;1.10;;;;;;;;;;5045546;28;20072;-75
2022/04/04 09:18:34;;;;;;;1.73;1.20;;;;;;;;;;5049990;28;20052;-75
2022/04/04 09:21:01;;;;;;;1.35;0.90;;;;;;;;;;5049969;28;20103;-73
2022/04/04 09:23:34;;;;;;;4.22;1.35;;;;;;;;;;5038906;28;20099;-75
2022/04/04 09:26:01;;;;;;;34.63;16.75;;;;;;;;;;5048273;28;20523;-74
2022/04/04 09:28:28;;;;;;;17.95;7.82;;;;;;;;;;5049917;28;20072;-75
2022/04/04 09:31:07;;;;;;;22.88;11.73;;;;;;;;;;5050191;28;20057;-73
2022/04/04 09:33:38;;;;;;;15.63;8.02;;;;;;;;;;5050698;28;20428;-74
2022/04/04 09:36:05;;;;;;;12.48;6.35;;;;;;;;;;5040535;28;20103;-73
2022/04/04 09:38:34;;;;;;;9.45;4.57;;;;;;;;;;5033212;28;20087;-72
2022/04/04 09:41:17;;;;;;;8.75;5.07;;;;;;;;;;5032393;28;20119;-77
2022/04/04 09:43:51;;;;;;;9.90;5.78;;;;;;;;;;5041309;28;20095;-78
2022/04/04 09:46:17;;;;;;;6.47;4.55;;;;;;;;;;5053498;28;20508;-77
2022/04/04 09:49:16;;;;;;;9.55;5.88;;;;;;;;;;5053810;28;20077;-76
2022/04/04 09:51:45;;;;;;;9.85;5.85;;;;;;;;;;5051897;28;20053;-76
2022/04/04 09:54:23;;;;;;;11.50;5.22;;;;;;;;;;5045168;28;20045;-76
2022/04/04 09:56:56;;;;;;;13.70;6.85;;;;;;;;;;5025016;28;20140;-75
2022/04/04 09:59:29;;;;;;;10.27;6.00;;;;;;;;;;5048733;28;20050;-75
2022/04/04 10:01:56;;;;;;;8.95;4.90;;;;;;;;;;5041999;28;20107;-76
2022/04/04 10:04:25;;;;;;;8.77;5.00;;;;;;;;;;5053593;28;20052;-75
2022/04/04 10:06:51;;;;;;;8.07;5.13;;;;;;;;;;5053393;28;20495;-76
2022/04/04 10:09:18;;;;;;;15.10;8.27;;;;;;;;;;5053449;28;20084;-75
2022/04/04 10:11:45;;;;;;;15.27;8.85;;;;;;;;;;5036140;28;20387;-75
2022/04/04 10:14:14;;;;;;;13.13;8.17;;;;;;;;;;5050372;28;20485;-75
2022/04/04 10:16:41;;;;;;;10.93;7.78;;;;;;;;;;5053044;28;20045;-76
2022/04/04 10:19:10;;;;;;;13.18;7.82;;;;;;;;;;5053054;28;20071;-75
2022/04/04 10:21:37;;;;;;;13.32;8.52;;;;;;;;;;5053188;28;20099;-75
2022/04/04 10:24:05;;;;;;;9.55;6.00;;;;;;;;;;5051658;28;20128;-75
2022/04/04 10:26:33;;;;;;;9.57;6.15;;;;;;;;;;5052854;28;20052;-75
2022/04/04 10:29:10;;;;;;;9.27;5.82;;;;;;;;;;5052721;28;20517;-76
2022/04/04 10:31:47;;;;;;;10.00;5.82;;;;;;;;;;5053272;28;20436;-75
2022/04/04 10:34:21;;;;;;;12.20;6.57;;;;;;;;;;5052917;28;20442;-75
2022/04/04 10:37:01;;;;;;;13.13;7.22;;;;;;;;;;5052598;28;20599;-75
2022/04/04 10:39:33;;;;;;;11.43;6.63;;;;;;;;;;5052327;28;20135;-75
2022/04/04 10:42:02;;;;;;;;;;;;;;;;;;5053130;28;20049;-70
2022/04/04 10:45:03;;;;;;;16.40;7.18;;;;;;;;;;5039630;28;19932;-71
2022/04/04 10:47:30;;;;;;;12.90;6.88;;;;;;;;;;5035451;28;20399;-70
2022/04/04 10:49:57;;;;;;;12.13;6.53;;;;;;;;;;5037733;28;20087;-71
2022/04/04 10:52:44;;;;;;;12.65;7.05;;;;;;;;;;5052033;28;20114;-71
2022/04/04 10:55:24;;;;;;;15.05;7.68;;;;;;;;;;5036767;28;20099;-71
2022/04/04 10:57:56;;;;;;;13.20;7.85;;;;;;;;;;5030823;28;20133;-71
2022/04/04 11:00:51;;;;;;;14.02;7.45;;;;;;;;;;5029784;28;20122;-71
2022/04/04 11:03:25;;;;;;;14.88;8.10;;;;;;;;;;5033859;28;20299;-71
2022/04/04 11:09:11;;;;;;;12.95;8.05;;;;;;;;;;5036095;28;20045;-73
2022/04/04 11:11:41;;;;;;;12.52;6.97;;;;;;;;;;5050792;28;20081;-71
2022/04/04 11:14:08;;;;;;;15.98;7.47;;;;;;;;;;5051809;28;20546;-72
2022/04/04 11:17:00;;;;;;;10.40;6.50;;;;;;;;;;5052062;28;20088;-72
2022/04/04 11:19:28;;;;;;;10.13;6.57;;;;;;;;;;5050026;28;20044;-72
2022/04/04 11:21:54;;;;;;;8.85;5.78;;;;;;;;;;5050729;28;20048;-72
2022/04/04 11:24:21;;;;;;;9.82;6.75;;;;;;;;;;5051738;28;20080;-72
2022/04/04 11:26:47;;;;;;;11.02;7.25;;;;;;;;;;5048118;28;20053;-72
2022/04/04 11:29:19;;;;;;;8.43;6.60;;;;;;;;;;5047447;28;20048;-72
2022/04/04 11:31:47;;;;;;;12.98;7.18;;;;;;;;;;5052166;28;20056;-72
2022/04/04 11:34:14;;;;;;;10.68;7.10;;;;;;;;;;5052158;28;20045;-72
2022/04/04 11:36:41;;;;;;;14.10;8.30;;;;;;;;;;5050744;28;20091;-72
2022/04/04 11:39:09;;;;;;;10.75;7.47;;;;;;;;;;5052155;28;20461;-72
2022/04/04 11:41:36;;;;;;;10.02;7.40;;;;;;;;;;5052683;28;20110;-72
2022/04/04 11:44:03;;;;;;;12.65;7.70;;;;;;;;;;5052450;28;20091;-72
2022/04/04 11:46:30;;;;;;;12.20;8.18;;;;;;;;;;5052621;28;20087;-72
2022/04/04 11:48:59;;;;;;;9.63;7.55;;;;;;;;;;5051349;28;20045;-72
2022/04/04 11:51:26;;;;;;;11.30;7.55;;;;;;;;;;5052186;28;20092;-72
2022/04/04 11:54:10;;;;;;;8.93;7.15;;;;;;;;;;5052461;28;20088;-72
2022/04/04 11:56:41;;;;;;;9.95;7.50;;;;;;;;;;5051462;28;20044;-72
2022/04/04 11:59:09;;;;;;;10.05;6.70;;;;;;;;;;5052533;28;20080;-73
2022/04/04 12:01:35;;;;;;;8.90;6.28;;;;;;;;;;5052065;28;20389;-73
2022/04/04 12:04:05;;;;;;;9.63;7.10;;;;;;;;;;5052213;28;20065;-73
2022/04/04 12:06:33;;;;;;;10.35;8.10;;;;;;;;;;5050738;28;20057;-73
2022/04/04 12:09:03;;;;;;;11.30;8.73;;;;;;;;;;5051888;28;20056;-74
2022/04/04 12:11:30;;;;;;;10.70;8.65;;;;;;;;;;5051123;28;20052;-74
2022/04/04 12:13:58;;;;;;;10.02;8.00;;;;;;;;;;5050657;28;20477;-73
2022/04/04 12:16:24;;;;;;;7.75;6.93;;;;;;;;;;5052038;28;20080;-72
2022/04/04 12:18:57;;;;;;;5.53;5.00;;;;;;;;;;5044520;28;20046;-72
2022/04/04 12:21:24;;;;;;;5.68;5.15;;;;;;;;;;5027112;28;20053;-75
2022/04/04 12:26:35;;;;;;;6.32;5.70;;;;;;;;;;5045750;28;20063;-72
2022/04/04 12:29:08;;;;;;;8.02;6.00;;;;;;;;;;5047165;28;20049;-71
2022/04/04 12:31:35;;;;;;;6.68;5.82;;;;;;;;;;5030569;28;20103;-72
2022/04/04 12:34:01;;;;;;;9.38;6.30;;;;;;;;;;5030169;28;20069;-72
2022/04/04 12:36:29;;;;;;;8.25;6.93;;;;;;;;;;5035997;28;20079;-72
2022/04/04 12:38:59;;;;;;;7.32;5.05;;;;;;;;;;5041234;28;20084;-71
2022/04/04 12:41:25;;;;;;;6.55;4.43;;;;;;;;;;5030418;28;20049;-71
2022/04/04 12:44:01;;;;;;;6.32;5.20;;;;;;;;;;5030186;28;20464;-72
2022/04/04 12:46:29;;;;;;;5.40;4.40;;;;;;;;;;5029929;28;20493;-71
2022/04/04 12:49:11;;;;;;;4.50;4.10;;;;;;;;;;5030586;28;20094;-72
2022/04/04 12:51:38;;;;;;;4.32;3.90;;;;;;;;;;5047751;28;20085;-71
2022/04/04 12:54:04;;;;;;;4.75;3.80;;;;;;;;;;5049253;28;20477;-72
2022/04/04 12:56:46;;;;;;;3.60;3.30;;;;;;;;;;5049317;28;20476;-72
2022/04/04 12:59:13;;;;;;;4.65;3.63;;;;;;;;;;5050552;28;20049;-72
2022/04/04 13:01:39;;;;;;;4.80;3.10;;;;;;;;;;5050436;28;20040;-72
2022/04/04 13:04:19;;;;;;;4.15;3.30;;;;;;;;;;5050497;28;20462;-72
2022/04/04 13:06:46;;;;;;;3.15;2.85;;;;;;;;;;5050142;28;20087;-71
2022/04/04 13:09:21;;;;;;;4.55;3.22;;;;;;;;;;5053870;28;20049;-71
2022/04/04 13:11:48;;;;;;;4.25;3.00;;;;;;;;;;5054482;28;20083;-71
2022/04/04 13:14:15;;;;;;;4.30;3.25;;;;;;;;;;5044778;28;20151;-72
2022/04/04 13:16:42;;;;;;;4.80;2.67;;;;;;;;;;5048855;28;20390;-73
2022/04/04 13:19:10;;;;;;;3.80;2.80;;;;;;;;;;5032445;28;20045;-70
2022/04/04 13:21:38;;;;;;;3.10;2.80;;;;;;;;;;5032811;28;20536;-71
2022/04/04 13:24:06;;;;;;;3.45;2.97;;;;;;;;;;5032993;28;20045;-71
2022/04/04 13:26:33;;;;;;;4.95;2.92;;;;;;;;;;5033004;28;20096;-71
2022/04/04 13:29:00;;;;;;;4.97;3.42;;;;;;;;;;5034445;28;20136;-71
2022/04/04 13:31:29;;;;;;;6.60;3.53;;;;;;;;;;5034619;28;20084;-72
2022/04/04 13:33:56;;;;;;;3.53;3.22;;;;;;;;;;5033175;28;20798;-71
2022/04/04 13:36:23;;;;;;;3.05;2.75;;;;;;;;;;5034818;28;20041;-71
2022/04/04 13:38:53;;;;;;;4.88;3.15;;;;;;;;;;5033208;28;20460;-71
2022/04/04 13:41:20;;;;;;;4.18;3.15;;;;;;;;;;5033075;28;20544;-71
2022/04/04 13:43:46;;;;;;;2.92;2.67;;;;;;;;;;5034325;28;20081;-72
2022/04/04 13:46:15;;;;;;;4.68;2.70;;;;;;;;;;5034406;28;20080;-72
2022/04/04 13:48:43;;;;;;;5.03;3.30;;;;;;;;;;5030685;28;20140;-72
2022/04/04 13:51:09;;;;;;;6.20;3.65;;;;;;;;;;5049965;28;20315;-72
2022/04/04 13:53:35;;;;;;;4.30;3.55;;;;;;;;;;5052753;28;20049;-72
2022/04/04 13:56:02;;;;;;;5.72;3.45;;;;;;;;;;5054050;28;20128;-71
2022/04/04 13:58:28;;;;;;;6.70;4.68;;;;;;;;;;5054170;28;20068;-71
2022/04/04 14:00:55;;;;;;;4.25;3.42;;;;;;;;;;5054169;28;20087;-69
2022/04/04 14:03:22;;;;;;;7.90;4.18;;;;;;;;;;5054604;28;20136;-72
2022/04/04 14:05:55;;;;;;;3.60;3.20;;;;;;;;;;5053338;28;20057;-72
2022/04/04 14:08:22;;;;;;;4.53;3.20;;;;;;;;;;5039742;28;20452;-72
2022/04/04 14:10:49;;;;;;;5.33;3.70;;;;;;;;;;5034762;28;20042;-73
2022/04/04 14:13:15;;;;;;;6.85;3.67;;;;;;;;;;5042440;28;20697;-72
2022/04/04 14:15:42;;;;;;;3.40;2.22;;;;;;;;;;5054363;28;20079;-72
2022/04/04 14:18:08;;;;;;;3.40;2.92;;;;;;;;;;5053851;28;20041;-72
2022/04/04 14:20:36;;;;;;;3.70;2.67;;;;;;;;;;5053453;28;20072;-73
2022/04/04 14:23:03;;;;;;;5.65;3.33;;;;;;;;;;5054243;28;20049;-72
2022/04/04 14:25:29;;;;;;;4.72;3.00;;;;;;;;;;5044935;28;20112;-73
2022/04/04 14:27:56;;;;;;;3.00;2.72;;;;;;;;;;5052844;28;20107;-74
2022/04/04 14:30:25;;;;;;;5.20;3.42;;;;;;;;;;5052864;28;20106;-74
2022/04/04 14:32:52;;;;;;;6.45;4.40;;;;;;;;;;5052746;28;20052;-72
2022/04/04 14:35:19;;;;;;;6.43;3.85;;;;;;;;;;5052633;28;20382;-72
2022/04/04 14:37:46;;;;;;;7.18;4.10;;;;;;;;;;5040603;28;20417;-78
2022/04/04 14:40:12;;;;;;;6.40;3.50;;;;;;;;;;5034523;28;20096;-73
2022/04/04 14:42:40;;;;;;;6.40;3.60;;;;;;;;;;5035452;28;20053;-72
2022/04/04 14:45:08;;;;;;;6.10;4.18;;;;;;;;;;5039666;28;20076;-73
2022/04/04 14:47:34;;;;;;;6.38;4.40;;;;;;;;;;5032251;28;20095;-73
2022/04/04 14:50:07;;;;;;;8.20;4.85;;;;;;;;;;5037397;28;20045;-73
2022/04/04 14:52:35;;;;;;;6.60;3.70;;;;;;;;;;5032010;28;20050;-73
2022/04/04 14:55:02;;;;;;;7.13;3.42;;;;;;;;;;5042538;28;20103;-75
2022/04/04 14:57:31;;;;;;;5.32;3.13;;;;;;;;;;5044518;28;20045;-76
2022/04/04 15:00:00;;;;;;;5.70;2.88;;;;;;;;;;5031811;28;20516;-75